Time;durP1;ratioP1;P1;durP2;ratioP2;P2;SDS_P1;SDS_P2;PMS_P1;PMS_P2;Temp;Humidity;BMP_temperature;BMP_pressure;BME280_temperature;BME280_humidity;BME280_pressure;Samples;Min_cycle;Max_cycle;Signal;HPM_P1;HPM_P2
2022/05/26 00:01:41;;;;;;;;;;;15.00;99.90;;;;;;4995644;28;38526;-56
2022/05/26 00:04:09;;;;;;;;;;;15.00;99.90;;;;;;4995363;28;37109;-57
2022/05/26 00:06:37;;;;;;;;;;;15.00;99.90;;;;;;4996781;28;35293;-56
2022/05/26 00:09:04;;;;;;;;;;;15.00;99.90;;;;;;4995718;28;38039;-56
2022/05/26 00:11:32;;;;;;;;;;;15.00;99.90;;;;;;4995290;28;38276;-57
2022/05/26 00:14:01;;;;;;;;;;;14.90;99.90;;;;;;4997654;28;38706;-56
2022/05/26 00:16:28;;;;;;;;;;;14.90;99.90;;;;;;4996066;28;36708;-56
2022/05/26 00:18:57;;;;;;;;;;;14.90;99.90;;;;;;4995350;28;37779;-57
2022/05/26 00:21:25;;;;;;;;;;;14.90;99.90;;;;;;4995810;28;37160;-57
2022/05/26 00:23:54;;;;;;;;;;;14.90;99.90;;;;;;4994579;28;39153;-56
2022/05/26 00:26:21;;;;;;;;;;;14.90;99.90;;;;;;4995663;28;35162;-57
2022/05/26 00:28:48;;;;;;;;;;;14.90;99.90;;;;;;4996494;28;37599;-56
2022/05/26 00:31:16;;;;;;;;;;;14.90;99.90;;;;;;4994695;28;38190;-56
2022/05/26 00:33:43;;;;;;;;;;;14.90;99.90;;;;;;4995808;28;37693;-57
2022/05/26 00:36:12;;;;;;;;;;;14.90;99.90;;;;;;4995564;28;36474;-56
2022/05/26 00:38:41;;;;;;;;;;;14.90;99.90;;;;;;4995578;28;38378;-56
2022/05/26 00:41:09;;;;;;;;;;;14.90;99.90;;;;;;4994069;28;39382;-56
2022/05/26 00:43:36;;;;;;;;;;;14.90;99.90;;;;;;4995482;28;38244;-56
2022/05/26 00:46:07;;;;;;;;;;;14.80;99.90;;;;;;4994460;28;38106;-57
2022/05/26 00:48:37;;;;;;;;;;;14.90;99.90;;;;;;4992012;28;37914;-57
2022/05/26 00:51:05;;;;;;;;;;;14.80;99.90;;;;;;4993571;28;38585;-56
2022/05/26 00:53:35;;;;;;;;;;;14.80;99.90;;;;;;4994981;28;38207;-56
2022/05/26 00:56:07;;;;;;;;;;;14.80;99.90;;;;;;4995437;28;36655;-56
2022/05/26 00:58:36;;;;;;;;;;;14.70;99.90;;;;;;4995261;28;37360;-57
2022/05/26 01:01:03;;;;;;;;;;;14.70;99.90;;;;;;4995150;28;37021;-56
2022/05/26 01:03:31;;;;;;;;;;;14.70;99.90;;;;;;4994972;28;38181;-57
2022/05/26 01:06:01;;;;;;;;;;;14.70;99.90;;;;;;4994904;28;36954;-56
2022/05/26 01:08:30;;;;;;;;;;;14.70;99.90;;;;;;4996163;28;37998;-57
2022/05/26 01:10:57;;;;;;;;;;;14.70;99.90;;;;;;4995729;28;40919;-57
2022/05/26 01:13:25;;;;;;;;;;;14.70;99.90;;;;;;4993699;28;37833;-57
2022/05/26 01:15:57;;;;;;;;;;;14.70;99.90;;;;;;4995306;28;36514;-57
2022/05/26 01:18:27;;;;;;;;;;;14.70;99.90;;;;;;4995047;28;39082;-57
2022/05/26 01:20:58;;;;;;;;;;;14.70;99.90;;;;;;4994904;28;39107;-56
2022/05/26 01:23:54;;;;;;;;;;;14.70;99.90;;;;;;4995141;28;37295;-57
2022/05/26 01:26:40;;;;;;;;;;;14.70;99.90;;;;;;4994267;28;35209;-57
2022/05/26 01:29:22;;;;;;;;;;;14.70;99.90;;;;;;4994947;28;40897;-57
2022/05/26 01:31:52;;;;;;;;;;;14.70;99.90;;;;;;4960113;28;37060;-57
2022/05/26 01:34:25;;;;;;;;;;;14.70;99.90;;;;;;4994501;28;37684;-57
2022/05/26 01:36:58;;;;;;;;;;;14.60;99.90;;;;;;4993641;28;34935;-56
2022/05/26 01:39:32;;;;;;;;;;;14.70;99.90;;;;;;4992177;28;37101;-56
2022/05/26 01:42:08;;;;;;;;;;;14.70;99.90;;;;;;4993518;28;38390;-57
2022/05/26 01:44:41;;;;;;;;;;;14.70;99.90;;;;;;4992820;28;36363;-56
2022/05/26 01:47:11;;;;;;;;;;;14.70;99.90;;;;;;4993815;28;37826;-57
2022/05/26 01:49:42;;;;;;;;;;;14.70;99.90;;;;;;4995038;28;38844;-56
2022/05/26 01:52:13;;;;;;;;;;;14.70;99.90;;;;;;4994637;28;37886;-56
2022/05/26 01:54:42;;;;;;;;;;;14.70;99.90;;;;;;4994472;28;36495;-56
2022/05/26 01:57:11;;;;;;;;;;;14.70;99.90;;;;;;4993898;28;35029;-56
2022/05/26 01:59:40;;;;;;;;;;;14.70;99.90;;;;;;4993950;28;38525;-56
2022/05/26 02:02:08;;;;;;;;;;;14.70;99.90;;;;;;4994097;28;39086;-56
2022/05/26 02:04:39;;;;;;;;;;;14.70;99.90;;;;;;4993313;28;37835;-56
2022/05/26 02:07:08;;;;;;;;;;;14.70;99.90;;;;;;4995921;28;36971;-56
2022/05/26 02:09:41;;;;;;;;;;;14.70;99.90;;;;;;4993456;28;36551;-56
2022/05/26 02:12:09;;;;;;;;;;;14.70;99.90;;;;;;4994082;28;38196;-57
2022/05/26 02:14:38;;;;;;;;;;;14.70;99.90;;;;;;4993869;28;37503;-57
2022/05/26 02:17:07;;;;;;;;;;;14.70;99.90;;;;;;4994507;28;36496;-56
2022/05/26 02:19:37;;;;;;;;;;;14.70;99.90;;;;;;4994960;28;37433;-57
2022/05/26 02:22:11;;;;;;;;;;;14.70;99.90;;;;;;4992993;28;38276;-57
2022/05/26 02:24:41;;;;;;;;;;;14.70;99.90;;;;;;4994225;28;36387;-57
2022/05/26 02:27:08;;;;;;;;;;;14.70;99.90;;;;;;4993138;28;36416;-56
2022/05/26 02:29:53;;;;;;;;;;;14.70;99.90;;;;;;4994297;28;36528;-56
2022/05/26 02:32:22;;;;;;;;;;;14.60;99.90;;;;;;4994706;28;38612;-56
2022/05/26 02:34:50;;;;;;;;;;;14.60;99.90;;;;;;4992982;28;38270;-56
2022/05/26 02:37:19;;;;;;;;;;;14.60;99.90;;;;;;4993151;28;36533;-55
2022/05/26 02:39:46;;;;;;;;;;;14.60;99.90;;;;;;4993002;28;37836;-56
2022/05/26 02:42:13;;;;;;;;;;;14.50;99.90;;;;;;4993217;28;36121;-56
2022/05/26 02:44:41;;;;;;;;;;;14.50;99.90;;;;;;4992039;28;38337;-56
2022/05/26 02:47:15;;;;;;;;;;;14.50;99.90;;;;;;4994045;28;36573;-56
2022/05/26 02:49:52;;;;;;;;;;;14.50;99.90;;;;;;4993270;28;38285;-55
2022/05/26 02:52:26;;;;;;;;;;;14.50;99.90;;;;;;4992025;28;37189;-56
2022/05/26 02:55:02;;;;;;;;;;;14.50;99.90;;;;;;4994481;28;36505;-56
2022/05/26 02:57:33;;;;;;;;;;;14.40;99.90;;;;;;4993574;28;37335;-56
2022/05/26 03:00:03;;;;;;;;;;;14.40;99.90;;;;;;4991713;28;38957;-55
2022/05/26 03:02:33;;;;;;;;;;;14.40;99.90;;;;;;4993830;28;39217;-56
2022/05/26 03:05:04;;;;;;;;;;;14.30;99.90;;;;;;4991550;28;37723;-56
2022/05/26 03:07:34;;;;;;;;;;;14.30;99.90;;;;;;4994422;28;37360;-56
2022/05/26 03:10:02;;;;;;;;;;;14.30;99.90;;;;;;4993844;28;39415;-56
2022/05/26 03:12:30;;;;;;;;;;;14.20;99.90;;;;;;4992993;28;38968;-56
2022/05/26 03:14:57;;;;;;;;;;;14.30;99.90;;;;;;4993478;28;39125;-56
2022/05/26 03:17:24;;;;;;;;;;;14.20;99.90;;;;;;4992143;28;36551;-56
2022/05/26 03:19:52;;;;;;;;;;;14.20;99.90;;;;;;4992595;28;37767;-56
2022/05/26 03:22:19;;;;;;;;;;;14.20;99.90;;;;;;4993136;28;36964;-56
2022/05/26 03:24:47;;;;;;;;;;;14.20;99.90;;;;;;4992068;28;37465;-56
2022/05/26 03:27:14;;;;;;;;;;;14.30;99.90;;;;;;4993422;28;37244;-55
2022/05/26 03:29:41;;;;;;;;;;;14.20;99.90;;;;;;4991935;28;36482;-56
2022/05/26 03:32:08;;;;;;;;;;;14.20;99.90;;;;;;4992751;28;39335;-56
2022/05/26 03:42:52;;;;;;;;;;;14.20;99.90;;;;;;4995981;28;39045;-56
2022/05/26 03:45:20;;;;;;;;;;;14.10;99.90;;;;;;4994846;28;37496;-55
2022/05/26 03:47:47;;;;;;;;;;;14.10;99.90;;;;;;4996318;28;37016;-56
2022/05/26 03:50:14;;;;;;;;;;;14.10;99.90;;;;;;4995581;28;40401;-56
2022/05/26 03:52:41;;;;;;;;;;;14.10;99.90;;;;;;4996006;28;38548;-56
2022/05/26 03:55:10;;;;;;;;;;;14.10;99.90;;;;;;4995727;28;38511;-55
2022/05/26 03:57:37;;;;;;;;;;;14.10;99.90;;;;;;4997090;28;34957;-56
2022/05/26 04:00:05;;;;;;;;;;;14.10;99.90;;;;;;4993638;28;40382;-56
2022/05/26 04:02:35;;;;;;;;;;;14.10;99.90;;;;;;4995355;28;38992;-55
2022/05/26 04:05:02;;;;;;;;;;;14.10;99.90;;;;;;4995541;28;40258;-56
2022/05/26 04:07:29;;;;;;;;;;;14.10;99.90;;;;;;4996336;28;36140;-56
2022/05/26 04:09:56;;;;;;;;;;;14.10;99.90;;;;;;4996187;28;37885;-56
2022/05/26 04:12:24;;;;;;;;;;;14.10;99.90;;;;;;4995959;28;38141;-56
2022/05/26 04:14:51;;;;;;;;;;;14.10;99.90;;;;;;4996200;28;37674;-56
2022/05/26 04:17:18;;;;;;;;;;;14.10;99.90;;;;;;4995948;28;36464;-56
2022/05/26 04:19:45;;;;;;;;;;;14.10;99.90;;;;;;4994427;28;38000;-56
2022/05/26 04:22:19;;;;;;;;;;;14.10;99.90;;;;;;4996834;28;38433;-56
2022/05/26 04:24:47;;;;;;;;;;;14.10;99.90;;;;;;4994591;28;37573;-55
2022/05/26 04:27:14;;;;;;;;;;;14.20;99.90;;;;;;4995897;28;37475;-56
2022/05/26 04:29:43;;;;;;;;;;;14.20;99.90;;;;;;4994744;28;36513;-56
2022/05/26 04:32:10;;;;;;;;;;;14.10;99.90;;;;;;4995413;28;37015;-56
2022/05/26 04:34:37;;;;;;;;;;;14.20;99.90;;;;;;4994074;28;38336;-56
2022/05/26 04:37:05;;;;;;;;;;;14.20;99.90;;;;;;4995388;28;36188;-56
2022/05/26 04:39:32;;;;;;;;;;;14.20;99.90;;;;;;4995319;28;35886;-56
2022/05/26 04:42:00;;;;;;;;;;;14.30;99.90;;;;;;4995335;28;39552;-56
2022/05/26 04:44:31;;;;;;;;;;;14.50;99.90;;;;;;4995179;28;38236;-56
2022/05/26 04:47:00;;;;;;;;;;;14.60;99.90;;;;;;4995157;28;37484;-56
2022/05/26 04:49:27;;;;;;;;;;;14.80;99.90;;;;;;4994739;28;37964;-56
2022/05/26 04:51:54;;;;;;;;;;;14.90;99.90;;;;;;4995557;28;38966;-56
2022/05/26 04:54:21;;;;;;;;;;;15.00;99.90;;;;;;4995348;28;37620;-56
2022/05/26 04:56:48;;;;;;;;;;;15.20;99.90;;;;;;4995185;28;33549;-56
2022/05/26 04:59:15;;;;;;;;;;;15.30;99.90;;;;;;4993776;28;38137;-56
2022/05/26 05:01:43;;;;;;;;;;;15.40;99.90;;;;;;4995591;28;36971;-56
2022/05/26 05:04:11;;;;;;;;;;;15.50;99.90;;;;;;4995336;28;37559;-57
2022/05/26 05:06:38;;;;;;;;;;;15.60;99.90;;;;;;4996340;28;36302;-56
2022/05/26 05:09:05;;;;;;;;;;;15.70;99.90;;;;;;4996077;28;36485;-56
2022/05/26 05:11:32;;;;;;;;;;;15.80;99.90;;;;;;4995830;28;39232;-56
2022/05/26 05:14:01;;;;;;;;;;;15.90;99.90;;;;;;4994570;28;37681;-56
2022/05/26 05:16:30;;;;;;;;;;;15.90;99.90;;;;;;4995349;28;34875;-56
2022/05/26 05:18:57;;;;;;;;;;;16.20;99.90;;;;;;4995708;28;37668;-57
2022/05/26 05:21:27;;;;;;;;;;;16.20;99.90;;;;;;4995267;28;38019;-56
2022/05/26 05:23:56;;;;;;;;;;;16.30;99.90;;;;;;4993634;28;37546;-54
2022/05/26 05:26:24;;;;;;;;;;;16.30;99.90;;;;;;4994312;28;36529;-55
2022/05/26 05:28:55;;;;;;;;;;;16.40;99.90;;;;;;4993733;28;38690;-55
2022/05/26 05:31:25;;;;;;;;;;;16.40;99.90;;;;;;4994239;28;38786;-55
2022/05/26 05:33:54;;;;;;;;;;;16.50;99.90;;;;;;4994515;28;37599;-54
2022/05/26 05:36:22;;;;;;;;;;;16.50;99.90;;;;;;4993829;28;35668;-55
2022/05/26 05:38:51;;;;;;;;;;;16.60;99.90;;;;;;4993879;28;36235;-55
2022/05/26 05:41:18;;;;;;;;;;;16.60;99.90;;;;;;4995489;28;38211;-55
2022/05/26 05:43:45;;;;;;;;;;;16.70;99.90;;;;;;4994979;28;37845;-55
2022/05/26 05:46:14;;;;;;;;;;;16.70;99.90;;;;;;4995359;28;37084;-55
2022/05/26 05:48:43;;;;;;;;;;;16.80;99.90;;;;;;4994866;28;38977;-55
2022/05/26 05:51:10;;;;;;;;;;;16.80;99.90;;;;;;4994629;28;38543;-56
2022/05/26 05:53:37;;;;;;;;;;;16.80;99.90;;;;;;4996356;28;37426;-56
2022/05/26 05:56:06;;;;;;;;;;;16.80;99.90;;;;;;4994832;28;38403;-55
2022/05/26 05:58:33;;;;;;;;;;;16.90;99.90;;;;;;4994451;28;38661;-56
2022/05/26 06:01:00;;;;;;;;;;;16.90;99.90;;;;;;4995970;28;39746;-55
2022/05/26 06:03:31;;;;;;;;;;;16.90;99.90;;;;;;4992814;28;38258;-56
2022/05/26 06:05:59;;;;;;;;;;;17.00;99.90;;;;;;4994060;28;36164;-55
2022/05/26 06:08:26;;;;;;;;;;;17.10;99.90;;;;;;4994143;28;38404;-56
2022/05/26 06:10:53;;;;;;;;;;;17.10;99.90;;;;;;4992781;28;38296;-55
2022/05/26 06:13:22;;;;;;;;;;;17.20;99.90;;;;;;4994685;28;37798;-56
2022/05/26 06:15:49;;;;;;;;;;;17.20;99.90;;;;;;4992884;28;36238;-55
2022/05/26 06:18:16;;;;;;;;;;;17.20;99.70;;;;;;4994602;28;38136;-56
2022/05/26 06:20:43;;;;;;;;;;;17.30;99.60;;;;;;4995115;28;38487;-56
2022/05/26 06:23:10;;;;;;;;;;;17.30;99.90;;;;;;4994059;28;37301;-56
2022/05/26 06:25:38;;;;;;;;;;;17.30;99.90;;;;;;4992541;28;38477;-56
2022/05/26 06:30:51;;;;;;;;;;;17.40;99.30;;;;;;4994054;28;39533;-56
2022/05/26 06:38:49;;;;;;;;;;;17.40;99.30;;;;;;4973247;28;38953;-56
2022/05/26 06:43:58;;;;;;;;;;;17.30;98.20;;;;;;4954818;28;38841;-55
2022/05/26 06:46:27;;;;;;;;;;;17.30;98.80;;;;;;4994111;28;36553;-55
2022/05/26 06:48:54;;;;;;;;;;;17.30;99.50;;;;;;4993248;28;37569;-56
2022/05/26 06:51:24;;;;;;;;;;;17.30;99.60;;;;;;4994095;28;39299;-55
2022/05/26 06:53:52;;;;;;;;;;;17.30;98.90;;;;;;4993218;28;37585;-55
2022/05/26 06:56:19;;;;;;;;;;;17.20;98.60;;;;;;4993159;28;34941;-55
2022/05/26 06:58:46;;;;;;;;;;;17.10;98.50;;;;;;4991864;28;37877;-56
2022/05/26 07:01:14;;;;;;;;;;;16.90;98.10;;;;;;4993428;28;39439;-56
2022/05/26 07:03:43;;;;;;;;;;;16.70;98.30;;;;;;4992976;28;36459;-56
2022/05/26 07:06:13;;;;;;;;;;;16.60;98.90;;;;;;4992117;28;34984;-55
2022/05/26 07:08:40;;;;;;;;;;;16.60;99.90;;;;;;4994795;28;37368;-55
2022/05/26 07:11:07;;;;;;;;;;;16.60;99.90;;;;;;4996520;28;38245;-56
2022/05/26 07:13:34;;;;;;;;;;;16.70;99.90;;;;;;4997220;28;36932;-56
2022/05/26 07:16:01;;;;;;;;;;;16.80;99.60;;;;;;4996748;28;36525;-56
2022/05/26 07:18:28;;;;;;;;;;;16.90;99.90;;;;;;4995807;28;37243;-56
2022/05/26 07:20:57;;;;;;;;;;;17.00;99.60;;;;;;4996349;28;38297;-56
2022/05/26 07:23:24;;;;;;;;;;;17.00;99.30;;;;;;4994460;28;36376;-56
2022/05/26 07:25:51;;;;;;;;;;;17.00;99.50;;;;;;4995414;28;37768;-56
2022/05/26 07:28:18;;;;;;;;;;;17.00;99.80;;;;;;4995142;28;37517;-56
2022/05/26 07:30:45;;;;;;;;;;;17.00;99.90;;;;;;4995833;28;38384;-55
2022/05/26 07:33:12;;;;;;;;;;;16.90;98.90;;;;;;4995483;28;38269;-56
2022/05/26 07:35:39;;;;;;;;;;;16.80;98.90;;;;;;4995458;28;36704;-56
2022/05/26 07:43:38;;;;;;;;;;;16.60;99.10;;;;;;4995502;28;39603;-55
2022/05/26 07:46:06;;;;;;;;;;;16.70;99.80;;;;;;4994671;28;36649;-56
2022/05/26 07:48:33;;;;;;;;;;;16.60;99.90;;;;;;4994801;28;36523;-55
2022/05/26 07:51:00;;;;;;;;;;;16.70;99.90;;;;;;4996321;28;39380;-55
2022/05/26 07:53:28;;;;;;;;;;;16.70;99.90;;;;;;4994911;28;36394;-55
2022/05/26 07:55:55;;;;;;;;;;;16.80;99.90;;;;;;4996170;28;37417;-56
2022/05/26 07:58:22;;;;;;;;;;;16.80;99.20;;;;;;4994748;28;38516;-56
2022/05/26 08:00:52;;;;;;;;;;;16.80;98.90;;;;;;4995638;28;38276;-56
2022/05/26 08:03:19;;;;;;;;;;;16.80;98.80;;;;;;4995081;28;37625;-55
2022/05/26 08:05:46;;;;;;;;;;;16.80;99.10;;;;;;4995083;28;35167;-56
2022/05/26 08:08:13;;;;;;;;;;;16.90;99.90;;;;;;4995301;28;39726;-56
2022/05/26 08:10:41;;;;;;;;;;;17.10;98.70;;;;;;4995138;28;38089;-56
2022/05/26 08:13:08;;;;;;;;;;;17.20;98.40;;;;;;4994790;28;37971;-56
2022/05/26 08:15:36;;;;;;;;;;;17.10;97.70;;;;;;4994720;28;36138;-56
2022/05/26 08:18:03;;;;;;;;;;;17.10;97.40;;;;;;4996111;28;38354;-56
2022/05/26 08:20:30;;;;;;;;;;;17.00;97.80;;;;;;4995552;28;39036;-56
2022/05/26 08:22:57;;;;;;;;;;;17.00;97.40;;;;;;4994729;28;38900;-55
2022/05/26 08:25:26;;;;;;;;;;;17.00;97.40;;;;;;4995145;28;35156;-55
2022/05/26 08:27:54;;;;;;;;;;;17.00;98.00;;;;;;4994324;28;37565;-56
2022/05/26 08:30:22;;;;;;;;;;;17.00;97.90;;;;;;4994025;28;38026;-55
2022/05/26 08:32:51;;;;;;;;;;;17.00;97.90;;;;;;4993878;28;38113;-56
2022/05/26 08:35:18;;;;;;;;;;;17.00;97.70;;;;;;4994329;28;35991;-55
2022/05/26 08:37:46;;;;;;;;;;;17.00;97.60;;;;;;4994472;28;38754;-56
2022/05/26 08:40:19;;;;;;;;;;;17.00;97.40;;;;;;4993587;28;37137;-56
2022/05/26 08:42:46;;;;;;;;;;;17.10;98.00;;;;;;4993006;28;37878;-56
2022/05/26 08:45:15;;;;;;;;;;;17.10;97.40;;;;;;4992652;28;37721;-55
2022/05/26 08:47:44;;;;;;;;;;;17.10;98.10;;;;;;4993270;28;38361;-55
2022/05/26 08:50:13;;;;;;;;;;;17.30;98.10;;;;;;4993072;28;39374;-56
2022/05/26 08:52:44;;;;;;;;;;;17.50;97.70;;;;;;4992910;28;37640;-55
2022/05/26 08:55:15;;;;;;;;;;;17.60;97.40;;;;;;4994304;28;36250;-56
2022/05/26 08:57:43;;;;;;;;;;;17.90;97.30;;;;;;4994866;28;36390;-55
2022/05/26 09:00:13;;;;;;;;;;;18.00;95.70;;;;;;5002960;28;38208;-56
2022/05/26 09:02:41;;;;;;;;;;;18.00;95.00;;;;;;5014819;28;38292;-56
2022/05/26 09:05:12;;;;;;;;;;;17.90;94.30;;;;;;5014516;28;36446;-56
2022/05/26 09:13:12;;;;;;;;;;;18.20;93.40;;;;;;5013528;28;38355;-56
2022/05/26 09:15:40;;;;;;;;;;;18.30;95.60;;;;;;5013136;28;40159;-55
2022/05/26 09:18:16;;;;;;;;;;;18.50;96.10;;;;;;5014715;28;37876;-56
2022/05/26 09:20:44;;;;;;;;;;;18.80;95.10;;;;;;5015059;28;39608;-56
2022/05/26 09:23:13;;;;;;;;;;;19.00;94.30;;;;;;5014275;28;37334;-56
2022/05/26 09:25:43;;;;;;;;;;;19.20;92.10;;;;;;5012148;28;36149;-56
2022/05/26 09:28:11;;;;;;;;;;;19.10;89.20;;;;;;5012584;28;38645;-55
2022/05/26 09:30:38;;;;;;;;;;;19.20;91.70;;;;;;5014245;28;38212;-56
2022/05/26 09:33:18;;;;;;;;;;;19.20;88.30;;;;;;5013074;28;35920;-56
2022/05/26 09:35:46;;;;;;;;;;;19.00;85.30;;;;;;5013706;28;36545;-56
2022/05/26 09:38:17;;;;;;;;;;;18.70;88.80;;;;;;5014948;28;39528;-56
2022/05/26 09:40:46;;;;;;;;;;;18.60;91.80;;;;;;5013488;28;38227;-56
2022/05/26 09:43:22;;;;;;;;;;;18.60;91.00;;;;;;5014074;28;38853;-56
2022/05/26 09:45:50;;;;;;;;;;;18.60;91.30;;;;;;5013561;28;35310;-56
2022/05/26 09:48:25;;;;;;;;;;;18.70;91.80;;;;;;5014279;28;38688;-56
2022/05/26 09:50:53;;;;;;;;;;;18.80;90.30;;;;;;5014053;28;40141;-56
2022/05/26 09:53:31;;;;;;;;;;;19.00;89.30;;;;;;5014627;28;38821;-56
2022/05/26 09:55:58;;;;;;;;;;;19.20;90.50;;;;;;5013247;28;35720;-56
2022/05/26 09:58:28;;;;;;;;;;;19.40;87.50;;;;;;5012265;28;38062;-56
2022/05/26 10:00:56;;;;;;;;;;;19.50;82.10;;;;;;4997627;28;38614;-56
2022/05/26 10:03:30;;;;;;;;;;;19.40;81.50;;;;;;4994225;28;37693;-56
2022/05/26 10:06:05;;;;;;;;;;;19.30;87.30;;;;;;4994127;28;35435;-56
2022/05/26 10:08:36;;;;;;;;;;;19.40;88.00;;;;;;4994268;28;38649;-56
2022/05/26 10:11:06;;;;;;;;;;;19.60;88.30;;;;;;4993780;28;38999;-56
2022/05/26 10:13:40;;;;;;;;;;;19.80;85.40;;;;;;4991907;28;36165;-55
2022/05/26 10:16:11;;;;;;;;;;;19.90;86.10;;;;;;4992270;28;35158;-56
2022/05/26 10:18:50;;;;;;;;;;;19.70;87.20;;;;;;4994254;28;40751;-55
2022/05/26 10:21:25;;;;;;;;;;;19.60;85.80;;;;;;4993950;28;37225;-56
2022/05/26 10:24:06;;;;;;;;;;;19.50;86.90;;;;;;4992678;28;37365;-55
2022/05/26 10:26:39;;;;;;;;;;;19.50;87.30;;;;;;4992837;28;36658;-56
2022/05/26 10:29:14;;;;;;;;;;;19.40;86.60;;;;;;4994120;28;40278;-55
2022/05/26 10:31:47;;;;;;;;;;;19.40;87.30;;;;;;4992758;28;37976;-55
2022/05/26 10:34:24;;;;;;;;;;;19.40;89.50;;;;;;4993570;28;37370;-55
2022/05/26 10:36:58;;;;;;;;;;;19.30;87.40;;;;;;4992329;28;37060;-55
2022/05/26 10:39:31;;;;;;;;;;;19.20;89.10;;;;;;4994013;28;37587;-55
2022/05/26 10:42:00;;;;;;;;;;;19.20;90.30;;;;;;4993268;28;39056;-55
2022/05/26 10:44:30;;;;;;;;;;;19.10;90.80;;;;;;4995857;28;37725;-55
2022/05/26 10:46:59;;;;;;;;;;;19.10;90.70;;;;;;4997913;28;36667;-55
2022/05/26 10:49:31;;;;;;;;;;;19.10;92.30;;;;;;4997256;28;37952;-55
2022/05/26 10:52:00;;;;;;;;;;;19.20;91.40;;;;;;4996860;28;39677;-54
2022/05/26 10:54:32;;;;;;;;;;;19.20;91.80;;;;;;4997273;28;36320;-55
2022/05/26 10:57:01;;;;;;;;;;;19.10;91.60;;;;;;4997732;28;35813;-55
2022/05/26 10:59:32;;;;;;;;;;;19.10;91.30;;;;;;4995901;28;36815;-55
2022/05/26 11:02:01;;;;;;;;;;;19.00;92.00;;;;;;4996109;28;38081;-55
2022/05/26 11:04:32;;;;;;;;;;;19.00;91.50;;;;;;4996263;28;37415;-54
2022/05/26 11:07:03;;;;;;;;;;;19.00;91.20;;;;;;4995828;28;35146;-55
2022/05/26 11:09:35;;;;;;;;;;;19.00;91.00;;;;;;4997747;28;37229;-55
2022/05/26 11:12:05;;;;;;;;;;;19.10;92.40;;;;;;4996725;28;37112;-55
2022/05/26 11:17:30;;;;;;;;;;;19.30;91.30;;;;;;4997819;28;37416;-54
2022/05/26 11:20:02;;;;;;;;;;;19.30;90.30;;;;;;4996891;28;38623;-55
2022/05/26 11:22:30;;;;;;;;;;;19.20;90.10;;;;;;4996856;28;38565;-54
2022/05/26 11:24:59;;;;;;;;;;;19.20;91.60;;;;;;4995603;28;37857;-54
2022/05/26 11:27:27;;;;;;;;;;;19.30;92.20;;;;;;4996861;28;37263;-54
2022/05/26 11:29:56;;;;;;;;;;;19.30;92.00;;;;;;4995610;28;38534;-54
2022/05/26 11:38:16;;;;;;;;;;;19.00;90.80;;;;;;4992326;28;37255;-54
2022/05/26 11:40:45;;;;;;;;;;;19.00;92.70;;;;;;5001553;28;37922;-54
2022/05/26 11:43:12;;;;;;;;;;;19.00;91.60;;;;;;5000944;28;38653;-55
2022/05/26 11:45:48;;;;;;;;;;;19.00;92.20;;;;;;5000170;28;37052;-54
2022/05/26 11:48:34;;;;;;;;;;;19.00;92.60;;;;;;5001176;28;36693;-52
2022/05/26 11:51:03;;;;;;;;;;;19.10;92.40;;;;;;4999715;28;38222;-54
2022/05/26 11:53:43;;;;;;;;;;;19.10;93.10;;;;;;5000177;28;40064;-54
2022/05/26 11:56:30;;;;;;;;;;;19.20;93.90;;;;;;4999665;28;38737;-55
2022/05/26 11:59:13;;;;;;;;;;;19.30;92.90;;;;;;5000828;28;36160;-54
2022/05/26 12:01:40;;;;;;;;;;;19.30;91.10;;;;;;5000951;28;37653;-54
2022/05/26 12:04:16;;;;;;;;;;;19.20;90.30;;;;;;4999463;28;39082;-54
2022/05/26 12:06:53;;;;;;;;;;;19.20;91.50;;;;;;5000636;28;37361;-54
2022/05/26 12:09:20;;;;;;;;;;;19.20;91.10;;;;;;5000867;28;37452;-55
2022/05/26 12:11:54;;;;;;;;;;;19.30;93.00;;;;;;5000484;28;38805;-54
2022/05/26 12:14:22;;;;;;;;;;;19.30;91.50;;;;;;5000817;28;37889;-55
2022/05/26 12:16:49;;;;;;;;;;;19.30;90.90;;;;;;4999351;28;37963;-54
2022/05/26 12:19:38;;;;;;;;;;;19.30;91.60;;;;;;5000178;28;34441;-54
2022/05/26 12:22:15;;;;;;;;;;;19.30;90.90;;;;;;4999637;28;39194;-54
2022/05/26 12:24:51;;;;;;;;;;;19.30;91.50;;;;;;5000174;28;37800;-54
2022/05/26 12:27:32;;;;;;;;;;;19.30;91.50;;;;;;5000793;28;39125;-54
2022/05/26 12:30:01;;;;;;;;;;;19.30;92.40;;;;;;4999644;28;37315;-54
2022/05/26 12:32:31;;;;;;;;;;;19.30;91.10;;;;;;5000520;28;39110;-54
2022/05/26 12:35:03;;;;;;;;;;;19.20;91.30;;;;;;5000147;28;37191;-54
2022/05/26 12:37:37;;;;;;;;;;;19.20;92.50;;;;;;5000206;28;36691;-54
2022/05/26 12:40:35;;;;;;;;;;;19.20;92.50;;;;;;4998634;28;35173;-55
2022/05/26 12:43:29;;;;;;;;;;;19.20;91.10;;;;;;4998615;28;37945;-55
2022/05/26 12:46:01;;;;;;;;;;;19.10;91.00;;;;;;4955688;28;38196;-55
2022/05/26 12:48:43;;;;;;;;;;;19.00;91.80;;;;;;4999056;28;38240;-54
2022/05/26 12:51:11;;;;;;;;;;;19.00;92.00;;;;;;4999185;28;37505;-54
2022/05/26 12:53:45;;;;;;;;;;;18.90;92.60;;;;;;4999534;28;37009;-54
2022/05/26 12:56:14;;;;;;;;;;;18.80;92.50;;;;;;4999377;28;38627;-54
2022/05/26 12:58:44;;;;;;;;;;;18.80;93.00;;;;;;4999139;28;37741;-54
2022/05/26 13:01:12;;;;;;;;;;;18.80;92.70;;;;;;5000173;28;36739;-54
2022/05/26 13:03:41;;;;;;;;;;;18.80;93.30;;;;;;4999044;28;36440;-54
2022/05/26 13:06:09;;;;;;;;;;;18.70;93.10;;;;;;4999122;28;38576;-54
2022/05/26 13:08:44;;;;;;;;;;;18.60;92.70;;;;;;4998849;28;37478;-54
2022/05/26 13:11:13;;;;;;;;;;;18.50;93.10;;;;;;4998554;28;37610;-54
2022/05/26 13:13:42;;;;;;;;;;;18.40;93.10;;;;;;4999439;28;36396;-54
2022/05/26 13:16:26;;;;;;;;;;;18.40;93.90;;;;;;4998876;28;38646;-54
2022/05/26 13:18:53;;;;;;;;;;;18.40;93.80;;;;;;4999597;28;38590;-54
2022/05/26 13:21:22;;;;;;;;;;;18.40;93.30;;;;;;4999539;28;35059;-54
2022/05/26 13:23:51;;;;;;;;;;;18.30;93.30;;;;;;4997115;28;36636;-55
2022/05/26 13:26:19;;;;;;;;;;;18.30;93.30;;;;;;4998707;28;40428;-54
2022/05/26 13:28:48;;;;;;;;;;;18.20;93.80;;;;;;4998344;28;38953;-54
2022/05/26 13:34:01;;;;;;;;;;;18.30;94.60;;;;;;4998401;28;38151;-55
2022/05/26 13:36:31;;;;;;;;;;;18.30;94.10;;;;;;4998858;28;39369;-54
2022/05/26 13:39:05;;;;;;;;;;;18.30;94.10;;;;;;4999504;28;38210;-55
2022/05/26 13:41:32;;;;;;;;;;;18.40;94.70;;;;;;4999464;28;35010;-55
2022/05/26 13:44:03;;;;;;;;;;;18.40;94.50;;;;;;4998592;28;37663;-54
2022/05/26 13:46:32;;;;;;;;;;;18.40;94.50;;;;;;4999911;28;38374;-54
2022/05/26 13:49:00;;;;;;;;;;;18.40;93.80;;;;;;4997728;28;38504;-55
2022/05/26 13:51:35;;;;;;;;;;;18.40;93.40;;;;;;4999337;28;38260;-55
2022/05/26 13:54:16;;;;;;;;;;;18.40;94.20;;;;;;4999207;28;37949;-54
2022/05/26 13:56:45;;;;;;;;;;;18.40;93.40;;;;;;4998864;28;38998;-55
2022/05/26 13:59:13;;;;;;;;;;;18.40;93.70;;;;;;4999442;28;37971;-54
2022/05/26 14:01:47;;;;;;;;;;;18.40;93.20;;;;;;4999815;28;37125;-55
2022/05/26 14:04:21;;;;;;;;;;;18.40;93.00;;;;;;4998047;28;37560;-55
2022/05/26 14:06:48;;;;;;;;;;;18.30;93.10;;;;;;4999500;28;38311;-55
2022/05/26 14:09:28;;;;;;;;;;;18.30;92.60;;;;;;4999701;28;37534;-55
2022/05/26 14:12:03;;;;;;;;;;;18.30;92.70;;;;;;5000173;28;35714;-55
2022/05/26 14:14:31;;;;;;;;;;;18.20;92.80;;;;;;4999936;28;37629;-55
2022/05/26 14:16:59;;;;;;;;;;;18.20;93.20;;;;;;4998796;28;39566;-56
2022/05/26 14:19:29;;;;;;;;;;;18.10;93.50;;;;;;4999637;28;38081;-55
2022/05/26 14:21:56;;;;;;;;;;;18.10;93.60;;;;;;4998997;28;37847;-55
2022/05/26 14:24:29;;;;;;;;;;;18.10;93.70;;;;;;4997703;28;37574;-53
2022/05/26 14:27:01;;;;;;;;;;;18.10;94.00;;;;;;4998984;28;40322;-55
2022/05/26 14:29:33;;;;;;;;;;;18.00;94.10;;;;;;4999246;28;36299;-55
2022/05/26 14:32:01;;;;;;;;;;;18.00;93.70;;;;;;4999521;28;35905;-54
2022/05/26 14:34:31;;;;;;;;;;;17.90;94.20;;;;;;4998034;28;37660;-54
2022/05/26 14:36:58;;;;;;;;;;;17.80;94.90;;;;;;4998765;28;38407;-55
2022/05/26 14:39:25;;;;;;;;;;;17.80;95.00;;;;;;4999748;28;36452;-55
2022/05/26 14:41:55;;;;;;;;;;;17.80;95.50;;;;;;4997967;28;37585;-54
2022/05/26 14:44:22;;;;;;;;;;;17.70;95.70;;;;;;4997803;28;38867;-55
2022/05/26 14:46:49;;;;;;;;;;;17.70;95.30;;;;;;4999162;28;39529;-54
2022/05/26 14:49:16;;;;;;;;;;;17.70;95.20;;;;;;4997507;28;34783;-55
2022/05/26 14:51:46;;;;;;;;;;;17.70;94.90;;;;;;4998438;28;37512;-55
2022/05/26 14:56:59;;;;;;;;;;;17.60;95.40;;;;;;4997844;28;39059;-55
2022/05/26 14:59:26;;;;;;;;;;;17.60;95.40;;;;;;4998883;28;37462;-56
2022/05/26 15:01:53;;;;;;;;;;;17.60;94.80;;;;;;5018638;28;36576;-56
2022/05/26 15:04:20;;;;;;;;;;;17.60;94.20;;;;;;5017131;28;39847;-56
2022/05/26 15:06:49;;;;;;;;;;;17.50;94.10;;;;;;5017882;28;39174;-56
2022/05/26 15:09:18;;;;;;;;;;;17.50;94.80;;;;;;5017346;28;38839;-56
2022/05/26 15:11:45;;;;;;;;;;;17.40;94.60;;;;;;5017998;28;34966;-56
2022/05/26 15:14:14;;;;;;;;;;;17.40;94.90;;;;;;5019525;28;38068;-56
2022/05/26 15:16:42;;;;;;;;;;;17.40;95.20;;;;;;5019576;28;38588;-56